Terminal Aerodrome Forecast
Issued by NWS

Current Version | Previous Version | Graphics & Text | Print | Product List | Glossary On
Versions: 1 2 3 4 5 6 7 8 9 10 11 12 13 14 15 16 17 18 19 20 21 22 23 24 25
000
FTUS41 KPBZ 261723
TAFMGW
TAF
KMGW 261723Z 2618/2718 25014G25KT P6SM BKN030
     FM262100 25011G20KT P6SM VCTS BKN030CB
      TEMPO 2622/2624 4SM TSRA OVC030CB
     FM270000 VRB03KT P6SM BKN060
     FM270700 VRB04KT 4SM BR BKN010
     FM271400 03006KT P6SM SCT060=

USA.gov is the U.S. government's official web portal to all federal, state and local government web resources and services.